North Bend, OR

6:19 PM PST on February 09, 2016 (GMT -0800)
North Bend Municipal

Weather History for KOTH - April, 2013

Change the Weather History Date:

Tuesday, April 23, 2013

  Actual Average Record
Temperature  
Mean Temperature 53 °F 50 °F  
Max Temperature 63 °F 56 °F 74 °F (1992)
Min Temperature 43 °F 44 °F 29 °F (1923)
Degree Days  
Heating Degree Days 12 15  
Month to date heating degree days 338 373  
Since 1 July heating degree days 3888 4085  
Cooling Degree Days 0 0  
Month to date cooling degree days 0 0  
Year to date cooling degree days 0 0  
Growing Degree Days 2 (Base 50)    
Moisture  
Dew Point 42 °F    
Average Humidity 68    
Maximum Humidity 93    
Minimum Humidity 42    
Precipitation  
Precipitation 0.00 in 0.15 in 1.36 in (2003)
Month to date precipitation 2.68 4.22  
Year to date precipitation 12.32 29.83  
Sea Level Pressure  
Sea Level Pressure 30.21 in    
Wind  
Wind Speed 13 mph (North)    
Max Wind Speed 28 mph    
Max Gust Speed 35 mph    
Visibility 10 miles    
Events      
T = Trace of Precipitation, MM = Missing Value Source: NWS Daily Summary

Daily Weather History Graph

Daily Weather History Graph

Search for Another Location

Airport or City:

Trip Planner

Search our weather history database for the weather conditions in past years. The results will help you decide how hot, cold, wet, or windy it might be!

Date:

Astronomy

Apr. 23, 2013 Rise Set
Actual Time 6:21 AM PDT 8:10 PM PDT
Civil Twilight 5:50 AM PDT 8:40 PM PDT
Nautical Twilight 5:13 AM PDT 9:17 PM PDT
Astronomical Twilight 4:33 AM PDT 9:58 PM PDT
Moon 6:08 PM PDT (4/23) 4:56 AM PDT (4/23)
Length of Visible Light 14h 49m
Length of Day
13h 48m
Waxing Gibbous, 94% of the Moon is Illuminated
Apr 23
Waxing Gibbous
Apr 25
Full
May 2
Last Quarter
May 9
New
May 17
First Quarter

Hourly Weather History & Observations

Time (PDT) Temp. Windchill Dew Point Humidity Pressure Visibility Wind Dir Wind Speed Gust Speed Precip Events Conditions
12:15 AM 51.8 °F - 39.2 °F 62% 30.27 in 10.0 mi Calm Calm - N/A   Clear
12:35 AM 53.6 °F - 39.2 °F 58% 30.27 in 10.0 mi Calm Calm - N/A   Clear
12:55 AM 51.8 °F - 39.2 °F 62% 30.27 in 10.0 mi Calm Calm - N/A   Clear
1:15 AM 51.8 °F - 37.4 °F 58% 30.27 in 10.0 mi North 4.6 mph - N/A   Clear
1:35 AM 51.8 °F - 37.4 °F 58% 30.27 in 10.0 mi North 5.8 mph - N/A   Clear
1:55 AM 51.8 °F - 37.4 °F 58% 30.27 in 10.0 mi North 5.8 mph - N/A   Clear
2:15 AM 51.8 °F - 39.2 °F 62% 30.26 in 10.0 mi North 5.8 mph - N/A   Clear
2:35 AM 51.8 °F - 37.4 °F 58% 30.26 in 10.0 mi NNE 3.5 mph - N/A   Clear
2:55 AM 48.2 °F - 37.4 °F 66% 30.25 in 10.0 mi Calm Calm - N/A   Clear
3:15 AM 50.0 °F - 42.8 °F 76% 30.25 in 10.0 mi Calm Calm - N/A   Clear
3:35 AM 46.4 °F - 42.8 °F 87% 30.25 in 10.0 mi Calm Calm - N/A   Clear
3:55 AM 46.4 °F - 39.2 °F 76% 30.26 in 10.0 mi Calm Calm - N/A   Clear
4:15 AM 46.4 °F 45.2 °F 41.0 °F 81% 30.25 in 10.0 mi NE 3.5 mph - N/A   Clear
4:35 AM 44.6 °F 42.2 °F 41.0 °F 87% 30.25 in 10.0 mi NE 4.6 mph - N/A   Clear
4:55 AM 44.6 °F 42.2 °F 41.0 °F 87% 30.24 in 10.0 mi NNE 4.6 mph - N/A   Clear
5:15 AM 44.6 °F 40.7 °F 39.2 °F 81% 30.23 in 10.0 mi NNE 6.9 mph - N/A   Clear
5:35 AM 42.8 °F - 39.2 °F 87% 30.24 in 10.0 mi Calm Calm - N/A   Clear
5:55 AM 44.6 °F - 39.2 °F 81% 30.24 in 10.0 mi Calm Calm - N/A   Clear
6:15 AM 42.8 °F - 39.2 °F 87% 30.23 in 10.0 mi Calm Calm - N/A   Clear
6:35 AM 42.8 °F - 39.2 °F 87% 30.23 in 10.0 mi Calm Calm - N/A   Clear
6:55 AM 42.8 °F 39.3 °F 39.2 °F 87% 30.23 in 10.0 mi NNE 5.8 mph - N/A   Clear
7:15 AM 44.6 °F 43.1 °F 41.0 °F 87% 30.23 in 10.0 mi NNE 3.5 mph - N/A   Clear
7:35 AM 44.6 °F - 39.2 °F 81% 30.24 in 10.0 mi Calm Calm - N/A   Clear
7:55 AM 48.2 °F - 39.2 °F 71% 30.23 in 10.0 mi NNE 4.6 mph - N/A   Clear
8:15 AM 50.0 °F - 39.2 °F 66% 30.24 in 10.0 mi North 3.5 mph - N/A   Clear
8:35 AM 51.8 °F - 39.2 °F 62% 30.24 in 10.0 mi Calm Calm - N/A   Clear
9:15 AM 55.4 °F - 39.2 °F 54% 30.24 in 10.0 mi North 4.6 mph - N/A   Clear
9:35 AM 57.2 °F - 39.2 °F 51% 30.24 in 10.0 mi NNW 6.9 mph - N/A   Clear
9:55 AM 55.4 °F - 39.2 °F 54% 30.24 in 10.0 mi NNW 9.2 mph - N/A   Clear
10:15 AM 57.2 °F - 39.2 °F 51% 30.23 in 10.0 mi NNW 8.1 mph - N/A   Clear
10:35 AM 59.0 °F - 39.2 °F 48% 30.23 in 10.0 mi NNW 10.4 mph - N/A   Partly Cloudy
10:55 AM 60.8 °F - 39.2 °F 45% 30.23 in 10.0 mi North 11.5 mph - N/A   Clear
11:15 AM 60.8 °F - 39.2 °F 45% 30.23 in 10.0 mi North 17.3 mph - N/A   Clear
11:35 AM 60.8 °F - 37.4 °F 42% 30.23 in 10.0 mi North 17.3 mph - N/A   Clear
11:55 AM 60.8 °F - 37.4 °F 42% 30.23 in 10.0 mi North 13.8 mph 20.7 mph N/A   Clear
12:15 PM 60.8 °F - 39.2 °F 45% 30.22 in 10.0 mi North 16.1 mph 20.7 mph N/A   Clear
12:35 PM 62.6 °F - 39.2 °F 42% 30.21 in 10.0 mi North 18.4 mph - N/A   Clear
12:55 PM 59.0 °F - 42.8 °F 55% 30.21 in 10.0 mi North 24.2 mph 29.9 mph N/A   Clear
1:15 PM 57.2 °F - 44.6 °F 63% 30.20 in 10.0 mi North 21.9 mph 27.6 mph N/A   Clear
1:35 PM 57.2 °F - 44.6 °F 63% 30.19 in 10.0 mi North 26.5 mph 31.1 mph N/A   Clear
1:55 PM 57.2 °F - 44.6 °F 63% 30.19 in 10.0 mi North 27.6 mph 34.5 mph N/A   Clear
2:15 PM 57.2 °F - 44.6 °F 63% 30.19 in 10.0 mi North 29.9 mph 36.8 mph N/A   Clear
2:35 PM 59.0 °F - 44.6 °F 59% 30.19 in 10.0 mi North 20.7 mph 31.1 mph N/A   Clear
2:55 PM 59.0 °F - 42.8 °F 55% 30.19 in 10.0 mi North 20.7 mph 31.1 mph N/A   Clear
3:15 PM 57.2 °F - 44.6 °F 63% 30.19 in 10.0 mi North 26.5 mph 32.2 mph N/A   Clear
3:35 PM 59.0 °F - 41.0 °F 51% 30.19 in 10.0 mi North 23.0 mph 31.1 mph N/A   Clear
3:55 PM 59.0 °F - 42.8 °F 55% 30.18 in 10.0 mi North 19.6 mph 26.5 mph N/A   Clear
4:15 PM 59.0 °F - 42.8 °F 55% 30.18 in 10.0 mi North 20.7 mph 26.5 mph N/A   Clear
4:35 PM 59.0 °F - 41.0 °F 51% 30.17 in 10.0 mi North 26.5 mph 29.9 mph N/A   Clear
4:55 PM 59.0 °F - 41.0 °F 51% 30.16 in 10.0 mi North 25.3 mph 31.1 mph N/A   Clear
5:15 PM 57.2 °F - 42.8 °F 59% 30.16 in 10.0 mi North 24.2 mph 31.1 mph N/A   Clear
5:35 PM 57.2 °F - 44.6 °F 63% 30.16 in 10.0 mi North 21.9 mph 28.8 mph N/A   Clear
5:55 PM 57.2 °F - 42.8 °F 59% 30.16 in 10.0 mi North 21.9 mph 32.2 mph N/A   Clear
6:15 PM 55.4 °F - 44.6 °F 67% 30.16 in 10.0 mi North 23.0 mph 29.9 mph N/A   Clear
6:35 PM 55.4 °F - 42.8 °F 63% 30.16 in 10.0 mi North 21.9 mph 29.9 mph N/A   Clear
6:55 PM 55.4 °F - 42.8 °F 63% 30.16 in 10.0 mi North 23.0 mph 29.9 mph N/A   Clear
7:15 PM 53.6 °F - 44.6 °F 72% 30.16 in 10.0 mi North 20.7 mph 28.8 mph N/A   Clear
7:35 PM 53.6 °F - 44.6 °F 72% 30.16 in 10.0 mi North 21.9 mph 29.9 mph N/A   Clear
7:55 PM 51.8 °F - 44.6 °F 76% 30.16 in 10.0 mi North 25.3 mph 31.1 mph N/A   Clear
8:15 PM 51.8 °F - 44.6 °F 76% 30.16 in 10.0 mi North 21.9 mph 28.8 mph N/A   Clear
8:35 PM 51.8 °F - 46.4 °F 82% 30.16 in 10.0 mi North 21.9 mph 27.6 mph N/A   Clear
8:55 PM 51.8 °F - 46.4 °F 82% 30.17 in 10.0 mi North 20.7 mph 28.8 mph N/A   Clear
9:15 PM 51.8 °F - 46.4 °F 82% 30.17 in 10.0 mi North 26.5 mph 31.1 mph N/A   Clear
9:35 PM 50.0 °F - 46.4 °F 87% 30.18 in 10.0 mi North 19.6 mph 31.1 mph N/A   Clear
9:55 PM 50.0 °F - 46.4 °F 87% 30.18 in 10.0 mi North 21.9 mph 28.8 mph N/A   Clear
10:15 PM 50.0 °F - 46.4 °F 87% 30.18 in 10.0 mi North 18.4 mph 25.3 mph N/A   Clear
10:35 PM 50.0 °F - 46.4 °F 87% 30.18 in 10.0 mi North 17.3 mph - N/A   Clear
10:55 PM 48.2 °F - 46.4 °F 93% 30.19 in 10.0 mi North 16.1 mph 21.9 mph N/A   Clear
11:15 PM 48.2 °F - 46.4 °F 93% 30.19 in 10.0 mi North 16.1 mph 24.2 mph N/A   Clear
11:35 PM 48.2 °F - 46.4 °F 93% 30.19 in 10.0 mi NNE 12.7 mph - N/A   Clear
11:55 PM 48.2 °F - 46.4 °F 93% 30.19 in 10.0 mi NNE 10.4 mph - N/A   Clear